Погода Петрахына неделю

Лодзинское воеводство, Польша

25 - 31 мая
  • 25мая
    Сегодня
    +13°
    +23°
    Облачно с прояснениями
    ВремяПогодаТемператураВлажностьДавлениеВетер, м/сВероятность осадков
    02:00Ясно и безоблачно+15°C95 %749 мм2.0 м/с2 %
    05:00Ясно и безоблачно+13°C96 %749 мм2.0 м/с2 %
    08:00Ясно и безоблачно+17°C79 %749 мм2.4 м/с2 %
    11:00Облачно с прояснениями+22°C59 %750 мм2.9 м/с5 %
    14:00Облачно с прояснениями+22°C54 %749 мм2.3 м/с23 %
    17:00Облачно с прояснениями+22°C49 %748 мм1.7 м/с30 %
    20:00Облачно с прояснениями+19°C73 %749 мм4.3 м/с39 %
    23:00Ясно и безоблачно+15°C93 %749 мм1.6 м/с2 %
  • 26мая
    Воскресенье
    +13°
    +26°
    Практически безоблачно
    ВремяПогодаТемператураВлажностьДавлениеВетер, м/сВероятность осадков
    02:00Ясно и безоблачно+14°C93 %749 мм1.8 м/с2 %
    05:00Практически безоблачно+13°C93 %749 мм1.9 м/с2 %
    08:00Практически безоблачно+19°C75 %750 мм1.6 м/с2 %
    11:00Небольшая облачность+24°C48 %750 мм2.0 м/с2 %
    14:00Практически безоблачно+26°C40 %750 мм2.8 м/с6 %
    17:00Небольшая облачность, ливень+21°C76 %750 мм4.2 м/с45 %
    20:00Облачно с прояснениями+19°C80 %750 мм1.7 м/с19 %
    23:00Облачно с прояснениями+17°C83 %750 мм2.2 м/с2 %
  • 27мая
    Понедельник
    +12°
    +26°
    Ясно и безоблачно
    ВремяПогодаТемператураВлажностьДавлениеВетер, м/сВероятность осадков
    02:00Облачно с прояснениями+15°C89 %750 мм1.9 м/с2 %
    05:00Небольшая облачность+14°C92 %749 мм2.1 м/с2 %
    08:00Ясно и безоблачно+18°C75 %750 мм2.5 м/с2 %
    11:00Ясно и безоблачно+24°C48 %750 мм3.1 м/с3 %
    14:00Ясно и безоблачно+26°C33 %749 мм4.8 м/с6 %
    17:00Облачно с прояснениями+25°C31 %747 мм4.9 м/с6 %
    20:00Облачно с прояснениями+21°C42 %747 мм3.4 м/с4 %
    23:00Облачно с прояснениями+18°C38 %747 мм4.2 м/с2 %
  • 28мая
    Вторник
    +13°
    +26°
    Ясно и безоблачно
    ВремяПогодаТемператураВлажностьДавлениеВетер, м/сВероятность осадков
    02:00Небольшая облачность+15°C49 %747 мм2.8 м/с2 %
    05:00Ясно и безоблачно+13°C54 %746 мм3.4 м/с2 %
    08:00Ясно и безоблачно+18°C53 %746 мм3.8 м/с2 %
    11:00Практически безоблачно+24°C43 %746 мм3.8 м/с2 %
    14:00Ясно и безоблачно+26°C34 %745 мм3.7 м/с2 %
    17:00Ясно и безоблачно+25°C30 %744 мм3.6 м/с11 %
    20:00Небольшая облачность+21°C47 %744 мм2.7 м/с15 %
    23:00Ясно и безоблачно+17°C76 %745 мм4.2 м/с6 %
  • 29мая
    Среда
    +11°
    +21°
    Небольшая облачность
    ВремяПогодаТемператураВлажностьДавлениеВетер, м/сВероятность осадков
    02:00Ясно и безоблачно+15°C88 %746 мм4.3 м/с5 %
    05:00Облачно с прояснениями+14°C94 %746 мм4.0 м/с4 %
    08:00Небольшая облачность+16°C76 %746 мм4.5 м/с10 %
    11:00Пасмурно, сплошная облачность+18°C62 %746 мм3.7 м/с19 %
    14:00Небольшая облачность+18°C58 %745 мм4.3 м/с43 %
    17:00Практически безоблачно+20°C57 %744 мм3.7 м/с46 %
    20:00Практически безоблачно+18°C72 %744 мм2.5 м/с33 %
    23:00Небольшая облачность+14°C93 %743 мм1.7 м/с8 %
Мы используем cookies
Соглашаюсь